createdAt,value
2023-03-29T00:02:19.951Z,74.30
2023-03-29T00:04:47.235Z,76.20
2023-03-29T00:07:14.412Z,76.40
2023-03-29T00:09:42.573Z,76.00
2023-03-29T00:12:11.239Z,77.80
2023-03-29T00:14:38.432Z,74.40
2023-03-29T00:17:05.628Z,75.00
2023-03-29T00:19:36.780Z,76.60
2023-03-29T00:22:06.314Z,75.30
2023-03-29T00:24:33.502Z,76.80
2023-03-29T00:27:01.176Z,77.90
2023-03-29T00:29:28.514Z,76.20
2023-03-29T00:31:56.155Z,74.60
2023-03-29T00:34:24.641Z,76.00
2023-03-29T00:36:53.081Z,73.30
2023-03-29T00:39:21.247Z,75.30
2023-03-29T00:41:51.625Z,74.20
2023-03-29T00:44:56.419Z,75.10
2023-03-29T00:47:45.618Z,74.70
2023-03-29T00:50:22.516Z,75.80
2023-03-29T00:53:09.853Z,75.20
2023-03-29T00:55:49.928Z,75.00
2023-03-29T00:58:27.398Z,73.90
2023-03-29T01:01:02.449Z,76.30
2023-03-29T01:03:38.124Z,75.00
2023-03-29T01:06:08.776Z,76.10
2023-03-29T01:08:41.966Z,74.80
2023-03-29T01:11:32.731Z,74.20
2023-03-29T01:14:03.819Z,73.40
2023-03-29T01:16:33.577Z,75.30
2023-03-29T01:19:02.408Z,74.60
2023-03-29T01:22:03.954Z,73.90
2023-03-29T01:25:05.454Z,74.50
2023-03-29T01:27:53.414Z,72.00
2023-03-29T01:30:43.955Z,72.40
2023-03-29T01:33:21.302Z,70.30
2023-03-29T01:35:57.725Z,71.20
2023-03-29T01:38:34.017Z,72.60
2023-03-29T01:41:03.671Z,70.30
2023-03-29T01:43:42.306Z,71.10
2023-03-29T01:46:25.274Z,70.70
2023-03-29T01:49:20.745Z,71.00
2023-03-29T01:52:15.442Z,69.70
2023-03-29T01:54:50.391Z,70.00
2023-03-29T01:57:23.074Z,69.50
2023-03-29T01:59:53.361Z,70.20
2023-03-29T02:02:21.752Z,70.40
2023-03-29T02:04:52.427Z,70.70
2023-03-29T02:07:23.635Z,69.40
2023-03-29T02:09:52.721Z,69.60
2023-03-29T02:12:20.867Z,69.70
2023-03-29T02:14:47.980Z,69.50
2023-03-29T02:17:26.578Z,68.60
2023-03-29T02:20:14.045Z,67.90
2023-03-29T02:23:04.696Z,68.00
2023-03-29T02:25:32.705Z,68.20
2023-03-29T02:28:01.014Z,66.80
2023-03-29T02:31:11.489Z,67.00
2023-03-29T02:33:52.229Z,67.70
2023-03-29T02:36:34.200Z,68.50
2023-03-29T02:39:05.867Z,68.80
2023-03-29T02:41:34.371Z,66.30
2023-03-29T02:44:04.344Z,67.90
2023-03-29T02:46:32.033Z,67.40
2023-03-29T02:49:00.054Z,67.10
2023-03-29T02:51:32.606Z,65.50
2023-03-29T02:54:17.911Z,66.00
2023-03-29T02:56:50.715Z,66.20
2023-03-29T02:59:25.172Z,65.30
2023-03-29T03:01:52.921Z,65.30
2023-03-29T03:04:23.429Z,65.60
2023-03-29T03:06:50.728Z,66.20
2023-03-29T03:09:18.553Z,66.40
2023-03-29T03:11:47.523Z,66.20
2023-03-29T03:14:14.780Z,64.60
2023-03-29T03:16:42.172Z,64.80
2023-03-29T03:19:10.552Z,65.50
2023-03-29T03:21:38.408Z,67.00
2023-03-29T03:24:07.708Z,65.60
2023-03-29T03:26:36.076Z,65.50
2023-03-29T03:29:05.498Z,64.80
2023-03-29T03:32:01.084Z,64.00
2023-03-29T03:34:57.471Z,66.80
2023-03-29T03:37:27.660Z,63.80
2023-03-29T03:39:55.172Z,63.70
2023-03-29T03:42:23.619Z,64.20
2023-03-29T03:44:50.849Z,64.40
2023-03-29T03:47:41.185Z,64.50
2023-03-29T03:50:27.553Z,63.60
2023-03-29T03:52:55.615Z,64.10
2023-03-29T03:55:22.816Z,64.00
2023-03-29T03:58:05.663Z,65.10
2023-03-29T04:00:33.459Z,66.10
2023-03-29T04:03:24.287Z,65.80
2023-03-29T04:05:51.575Z,66.30
2023-03-29T04:08:23.140Z,66.20
2023-03-29T04:11:09.340Z,65.80
2023-03-29T04:13:38.626Z,65.00
2023-03-29T04:16:27.555Z,65.30
2023-03-29T04:18:56.692Z,66.10
2023-03-29T04:21:24.873Z,65.30
2023-03-29T04:23:53.207Z,67.10
2023-03-29T04:26:20.348Z,65.40
2023-03-29T04:28:50.612Z,63.90
2023-03-29T04:31:27.988Z,65.30
2023-03-29T04:34:15.389Z,65.50
2023-03-29T04:36:43.746Z,65.20
2023-03-29T04:39:20.613Z,64.90
2023-03-29T04:41:53.624Z,66.60
2023-03-29T04:44:24.782Z,66.80
2023-03-29T04:46:52.400Z,65.70
2023-03-29T04:49:38.144Z,66.00
2023-03-29T04:52:10.519Z,65.60
2023-03-29T04:54:38.504Z,65.30
2023-03-29T04:57:19.212Z,67.50
2023-03-29T04:59:55.847Z,66.20
2023-03-29T05:02:46.271Z,66.10
2023-03-29T05:05:15.300Z,66.90
2023-03-29T05:07:44.404Z,68.50
2023-03-29T05:10:14.985Z,68.20
2023-03-29T05:12:42.984Z,68.70
2023-03-29T05:15:10.813Z,69.70
2023-03-29T05:17:38.143Z,68.50
2023-03-29T05:20:11.167Z,69.70
2023-03-29T05:22:40.381Z,69.70
2023-03-29T05:25:11.830Z,67.80
2023-03-29T05:27:42.600Z,67.70
2023-03-29T05:30:12.066Z,66.40
2023-03-29T05:32:58.256Z,66.80
2023-03-29T05:35:26.971Z,67.00
2023-03-29T05:37:56.412Z,68.80
2023-03-29T05:40:26.309Z,67.30
2023-03-29T05:43:12.240Z,67.30
2023-03-29T05:45:39.555Z,68.00
2023-03-29T05:48:06.946Z,69.00
2023-03-29T05:50:36.889Z,66.80
2023-03-29T05:53:05.157Z,66.40
2023-03-29T05:55:33.382Z,66.60
2023-03-29T05:58:01.169Z,66.70
2023-03-29T06:00:34.507Z,66.10
2023-03-29T06:03:21.317Z,66.00
2023-03-29T06:05:59.373Z,67.00
2023-03-29T06:08:27.781Z,66.90
2023-03-29T06:11:06.091Z,67.60
2023-03-29T06:13:52.959Z,66.60
2023-03-29T06:16:20.373Z,65.90
2023-03-29T06:18:48.014Z,65.50
2023-03-29T06:21:15.470Z,66.50
2023-03-29T06:23:43.033Z,67.60
2023-03-29T06:26:10.765Z,67.00
2023-03-29T06:28:39.142Z,66.50
2023-03-29T06:31:06.891Z,65.70
2023-03-29T06:33:38.864Z,64.90
2023-03-29T06:36:28.985Z,65.50
2023-03-29T06:38:56.264Z,65.00
2023-03-29T06:41:38.481Z,65.10
2023-03-29T06:44:14.413Z,64.80
2023-03-29T06:46:57.971Z,64.10
2023-03-29T06:49:26.287Z,65.10
2023-03-29T06:52:12.301Z,64.20
2023-03-29T06:54:40.787Z,62.20
2023-03-29T06:57:08.491Z,64.80
2023-03-29T06:59:36.036Z,63.10
2023-03-29T07:02:22.857Z,63.10
2023-03-29T07:05:02.101Z,63.70
2023-03-29T07:07:53.488Z,63.40
2023-03-29T07:10:44.129Z,61.90
2023-03-29T07:13:44.991Z,63.30
2023-03-29T07:16:18.204Z,66.20
2023-03-29T07:18:57.568Z,62.10
2023-03-29T07:21:44.957Z,62.20
2023-03-29T07:24:13.017Z,64.60
2023-03-29T07:26:46.323Z,62.90
2023-03-29T07:29:19.970Z,63.30
2023-03-29T07:31:47.185Z,66.20
2023-03-29T07:34:33.557Z,64.80
2023-03-29T07:37:01.003Z,65.40
2023-03-29T07:39:28.246Z,63.50
2023-03-29T07:42:18.655Z,64.00
2023-03-29T07:44:46.011Z,64.80
2023-03-29T07:47:13.447Z,63.90
2023-03-29T07:49:40.790Z,63.00
2023-03-29T07:52:08.254Z,63.10
2023-03-29T07:54:35.486Z,65.00
2023-03-29T07:57:18.892Z,63.10
2023-03-29T07:59:51.902Z,64.20
2023-03-29T08:02:22.886Z,63.10
2023-03-29T08:04:53.973Z,61.50
2023-03-29T08:07:56.272Z,63.70
2023-03-29T08:10:49.554Z,63.00
2023-03-29T08:13:52.334Z,65.70
2023-03-29T08:16:38.393Z,63.00
2023-03-29T08:19:10.609Z,63.90
2023-03-29T08:21:54.031Z,62.50
2023-03-29T08:24:24.240Z,63.70
2023-03-29T08:26:56.572Z,63.30
2023-03-29T08:29:25.226Z,62.40
2023-03-29T08:31:52.854Z,62.80
2023-03-29T08:34:20.068Z,63.40
2023-03-29T08:37:02.134Z,62.40
2023-03-29T08:39:40.904Z,62.90
2023-03-29T08:43:33.663Z,62.20
2023-03-29T08:46:45.270Z,61.80
2023-03-29T08:49:31.945Z,62.00
2023-03-29T08:52:05.359Z,64.20
2023-03-29T08:54:42.460Z,60.70
2023-03-29T08:57:33.482Z,64.10
2023-03-29T09:00:21.885Z,62.60
2023-03-29T09:02:52.011Z,62.60
2023-03-29T09:05:43.611Z,62.40
2023-03-29T09:08:21.402Z,64.40
2023-03-29T09:11:31.361Z,61.50
2023-03-29T09:14:33.694Z,61.40
2023-03-29T09:17:29.695Z,62.60
2023-03-29T09:20:57.182Z,61.80
2023-03-29T09:27:13.939Z,62.20
2023-03-29T09:36:24.361Z,61.80
2023-03-29T09:38:54.655Z,61.70
2023-03-29T09:41:34.557Z,63.10
2023-03-29T09:44:30.838Z,63.00
2023-03-29T09:47:34.210Z,62.20
2023-03-29T09:50:31.061Z,61.60
2023-03-29T09:53:01.760Z,62.10
2023-03-29T09:55:37.184Z,59.80
2023-03-29T09:58:27.598Z,59.30
2023-03-29T10:00:59.677Z,59.30
2023-03-29T10:03:31.893Z,62.60
2023-03-29T10:06:12.768Z,60.60
2023-03-29T10:09:09.538Z,59.00
2023-03-29T10:11:48.038Z,60.50
2023-03-29T10:14:37.171Z,59.60
2023-03-29T10:17:34.223Z,59.60
2023-03-29T10:20:08.207Z,60.00
2023-03-29T10:22:40.489Z,61.30
2023-03-29T10:25:15.180Z,60.20
2023-03-29T10:27:45.086Z,62.00
2023-03-29T10:30:35.060Z,60.00
2023-03-29T10:33:03.301Z,61.00
2023-03-29T10:35:41.985Z,57.60
2023-03-29T10:38:15.020Z,58.20
2023-03-29T10:40:48.244Z,60.50
2023-03-29T10:43:27.093Z,58.10
2023-03-29T10:45:56.523Z,57.70
2023-03-29T10:48:31.311Z,56.80
2023-03-29T10:51:01.444Z,59.50
2023-03-29T10:53:32.662Z,59.20
2023-03-29T10:56:28.927Z,57.70
2023-03-29T10:59:33.036Z,56.90
2023-03-29T11:02:54.159Z,56.60
2023-03-29T11:05:48.703Z,53.80
2023-03-29T11:08:35.387Z,55.60
2023-03-29T11:11:35.072Z,54.20
2023-03-29T11:14:20.613Z,52.90
2023-03-29T11:17:30.701Z,54.60
2023-03-29T11:20:45.881Z,52.50
2023-03-29T11:24:01.820Z,51.30
2023-03-29T11:27:04.158Z,49.70
2023-03-29T11:44:58.908Z,47.80
2023-03-29T11:47:37.391Z,47.70
2023-03-29T11:50:25.772Z,46.90
2023-03-29T11:53:07.253Z,44.80
2023-03-29T11:55:38.765Z,47.90
2023-03-29T11:58:31.540Z,47.60
2023-03-29T12:01:04.445Z,44.60
2023-03-29T12:04:02.592Z,44.40
2023-03-29T12:06:50.830Z,44.80
2023-03-29T12:09:50.516Z,45.50
2023-03-29T12:13:00.239Z,42.10
2023-03-29T12:15:32.701Z,42.80
2023-03-29T12:18:55.790Z,47.20
2023-03-29T12:21:25.113Z,41.80
2023-03-29T12:23:53.374Z,42.10
2023-03-29T12:27:05.510Z,43.10
2023-03-29T12:29:57.593Z,42.60
2023-03-29T12:33:15.771Z,43.00
2023-03-29T12:37:00.890Z,37.70
2023-03-29T12:43:41.346Z,37.90
2023-03-29T12:46:35.520Z,36.10
2023-03-29T12:49:24.393Z,41.00
2023-03-29T12:51:53.122Z,41.40
2023-03-29T12:54:23.427Z,36.80
2023-03-29T12:56:58.568Z,37.80
2023-03-29T12:59:39.582Z,35.70
2023-03-29T13:02:37.211Z,37.90
2023-03-29T13:05:25.061Z,36.50
2023-03-29T13:07:52.784Z,37.40
2023-03-29T13:10:40.001Z,36.30
2023-03-29T13:13:33.344Z,38.10
2023-03-29T13:16:16.323Z,39.00
2023-03-29T13:19:38.778Z,38.00
2023-03-29T13:22:34.292Z,36.90
2023-03-29T13:25:36.576Z,37.80
2023-03-29T13:28:24.650Z,39.30
2023-03-29T13:31:19.376Z,38.40
2023-03-29T13:34:33.894Z,36.40
2023-03-29T13:37:36.806Z,40.80
2023-03-29T13:40:25.383Z,37.70
2023-03-29T13:43:23.640Z,39.50
2023-03-29T13:46:23.695Z,40.30
2023-03-29T13:49:11.711Z,39.60
2023-03-29T13:51:48.320Z,37.10
2023-03-29T13:54:43.212Z,39.50
2023-03-29T13:57:57.240Z,40.20
2023-03-29T14:00:31.723Z,40.10
2023-03-29T14:03:02.147Z,39.20
2023-03-29T14:05:38.732Z,39.60
2023-03-29T14:08:22.334Z,41.80
2023-03-29T14:10:50.200Z,41.00
2023-03-29T14:13:19.595Z,41.20
2023-03-29T14:16:02.981Z,40.40
2023-03-29T14:18:36.841Z,39.00
2023-03-29T14:21:04.935Z,40.00
2023-03-29T14:23:33.793Z,40.50
2023-03-29T14:26:17.835Z,42.10
2023-03-29T14:28:59.464Z,38.60
2023-03-29T14:31:35.188Z,38.70
2023-03-29T14:34:04.734Z,40.20
2023-03-29T14:36:33.599Z,39.50
2023-03-29T14:39:08.234Z,38.70
2023-03-29T14:41:37.559Z,39.30
2023-03-29T14:44:08.604Z,38.90
2023-03-29T14:46:36.632Z,36.80
2023-03-29T14:49:05.139Z,38.50
2023-03-29T14:51:32.583Z,38.60
2023-03-29T14:54:02.253Z,37.70
2023-03-29T14:56:32.666Z,37.20
2023-03-29T14:59:01.679Z,37.50
2023-03-29T15:01:28.873Z,37.70
2023-03-29T15:04:10.429Z,37.70
2023-03-29T15:06:41.023Z,39.90
2023-03-29T15:09:17.077Z,36.70
2023-03-29T15:11:55.237Z,38.10
2023-03-29T15:14:24.853Z,38.30
2023-03-29T15:16:56.670Z,37.00
2023-03-29T15:19:26.277Z,35.90
2023-03-29T15:21:53.707Z,40.10
2023-03-29T15:24:32.067Z,37.20
2023-03-29T15:27:16.361Z,38.70
2023-03-29T15:29:46.944Z,37.20
2023-03-29T15:32:24.815Z,38.00
2023-03-29T15:35:08.067Z,38.10
2023-03-29T15:37:36.006Z,37.80
2023-03-29T15:40:09.888Z,41.20
2023-03-29T15:42:37.181Z,37.30
2023-03-29T15:45:07.524Z,37.60
2023-03-29T15:47:34.764Z,38.40
2023-03-29T15:50:02.137Z,38.40
2023-03-29T15:52:29.291Z,38.40
2023-03-29T15:54:56.552Z,37.50
2023-03-29T15:57:23.884Z,38.20
2023-03-29T15:59:51.292Z,39.70
2023-03-29T16:02:23.211Z,40.80
2023-03-29T16:04:51.061Z,39.80
2023-03-29T16:07:19.861Z,39.80
2023-03-29T16:09:47.419Z,40.00
2023-03-29T16:12:16.455Z,39.70
2023-03-29T16:14:55.694Z,36.90
2023-03-29T16:17:22.826Z,38.90
2023-03-29T16:19:50.120Z,39.60
2023-03-29T16:22:17.320Z,40.00
2023-03-29T16:24:44.360Z,39.10
2023-03-29T16:27:11.414Z,42.40
2023-03-29T16:29:38.488Z,41.50
2023-03-29T16:32:06.909Z,41.80
2023-03-29T16:34:36.123Z,40.80
2023-03-29T16:37:03.742Z,41.70
2023-03-29T16:39:30.890Z,40.90
2023-03-29T16:41:57.940Z,40.00
2023-03-29T16:44:27.688Z,40.80
2023-03-29T16:46:57.494Z,40.20
2023-03-29T16:49:24.826Z,40.90
2023-03-29T16:51:52.196Z,41.00
2023-03-29T16:54:19.359Z,40.10
2023-03-29T16:56:47.057Z,42.30
2023-03-29T16:59:14.518Z,40.40
2023-03-29T17:01:41.759Z,41.20
2023-03-29T17:04:09.353Z,40.40
2023-03-29T17:06:37.045Z,40.60
2023-03-29T17:09:05.198Z,41.60
2023-03-29T17:11:32.582Z,42.10
2023-03-29T17:14:00.247Z,41.00
2023-03-29T17:16:29.210Z,41.50
2023-03-29T17:19:00.412Z,41.90
2023-03-29T17:21:29.384Z,41.70
2023-03-29T17:23:56.582Z,41.40
2023-03-29T17:26:23.866Z,42.60
2023-03-29T17:28:51.065Z,42.30
2023-03-29T17:31:19.477Z,41.90
2023-03-29T17:33:47.573Z,42.30
2023-03-29T17:36:14.898Z,43.50
2023-03-29T17:38:42.981Z,42.50
2023-03-29T17:41:11.182Z,43.30
2023-03-29T17:43:38.263Z,45.10
2023-03-29T17:46:06.166Z,44.50
2023-03-29T17:48:33.517Z,44.80
2023-03-29T17:51:00.950Z,44.10
2023-03-29T17:53:28.060Z,44.20
2023-03-29T17:55:55.577Z,44.70
2023-03-29T17:58:22.622Z,45.80
2023-03-29T18:00:50.113Z,46.10
2023-03-29T18:03:17.366Z,46.70
2023-03-29T18:05:44.509Z,47.90
2023-03-29T18:08:13.612Z,47.00
2023-03-29T18:10:41.064Z,46.50
2023-03-29T18:13:11.380Z,47.10
2023-03-29T18:15:38.549Z,47.20
2023-03-29T18:18:05.729Z,48.50
2023-03-29T18:20:32.901Z,49.00
2023-03-29T18:22:59.996Z,49.20
2023-03-29T18:25:27.230Z,49.00
2023-03-29T18:27:54.319Z,48.80
2023-03-29T18:30:21.670Z,51.10
2023-03-29T18:32:48.795Z,52.20
2023-03-29T18:35:16.017Z,52.40
2023-03-29T18:37:43.121Z,52.90
2023-03-29T18:40:10.570Z,53.50
2023-03-29T18:42:37.752Z,55.00
2023-03-29T18:45:05.753Z,56.10
2023-03-29T18:47:33.266Z,56.20
2023-03-29T18:50:01.143Z,57.90
2023-03-29T18:52:28.305Z,62.60
2023-03-29T18:54:55.495Z,66.70
2023-03-29T18:57:22.633Z,71.20
2023-03-29T18:59:49.790Z,69.80
2023-03-29T19:02:17.439Z,71.60
2023-03-29T19:04:44.547Z,69.00
2023-03-29T19:07:11.788Z,63.60
2023-03-29T19:09:38.894Z,69.60
2023-03-29T19:12:06.653Z,70.00
2023-03-29T19:14:33.930Z,72.00
2023-03-29T19:17:01.068Z,76.00
2023-03-29T19:19:28.161Z,74.10
2023-03-29T19:21:57.713Z,72.70
2023-03-29T19:24:27.062Z,75.00
2023-03-29T19:26:54.319Z,75.00
2023-03-29T19:29:21.738Z,74.30
2023-03-29T19:31:51.044Z,73.10
2023-03-29T19:34:21.200Z,70.30
2023-03-29T19:36:48.434Z,70.00
2023-03-29T19:39:15.952Z,72.10
2023-03-29T19:41:43.129Z,70.60
2023-03-29T19:44:10.432Z,74.60
2023-03-29T19:46:37.849Z,76.40
2023-03-29T19:49:05.852Z,76.80
2023-03-29T19:51:33.024Z,72.20
2023-03-29T19:54:00.725Z,70.40
2023-03-29T19:56:28.049Z,70.90
2023-03-29T19:58:55.846Z,69.40
2023-03-29T20:01:23.050Z,71.40
2023-03-29T20:03:50.765Z,72.30
2023-03-29T20:06:19.495Z,75.90
2023-03-29T20:08:47.250Z,76.90
2023-03-29T20:11:15.454Z,77.00
2023-03-29T20:13:44.341Z,71.80
2023-03-29T20:16:14.041Z,71.60
2023-03-29T20:18:41.281Z,71.40
2023-03-29T20:21:09.347Z,71.80
2023-03-29T20:23:36.743Z,72.10
2023-03-29T20:26:04.012Z,71.60
2023-03-29T20:28:31.684Z,73.80
2023-03-29T20:31:06.426Z,76.50
2023-03-29T20:33:33.858Z,77.20
2023-03-29T20:36:01.093Z,79.20
2023-03-29T20:38:28.539Z,78.40
2023-03-29T20:40:55.899Z,78.20
2023-03-29T20:43:23.319Z,81.60
2023-03-29T20:45:53.825Z,83.30
2023-03-29T20:48:30.301Z,81.00
2023-03-29T20:50:57.834Z,79.80
2023-03-29T20:53:25.920Z,80.20
2023-03-29T20:55:53.097Z,78.80
2023-03-29T20:58:20.202Z,78.50
2023-03-29T21:00:48.497Z,78.60
2023-03-29T21:03:15.854Z,76.90
2023-03-29T21:05:43.580Z,76.30
2023-03-29T21:08:10.889Z,76.90
2023-03-29T21:10:37.996Z,76.00
2023-03-29T21:13:05.122Z,79.20
2023-03-29T21:15:33.247Z,81.20
2023-03-29T21:18:00.587Z,81.60
2023-03-29T21:20:27.975Z,83.10
2023-03-29T21:22:55.121Z,84.00
2023-03-29T21:25:22.431Z,85.10
2023-03-29T21:27:49.569Z,86.00
2023-03-29T21:30:17.166Z,85.10
2023-03-29T21:32:44.249Z,82.20
2023-03-29T21:35:11.668Z,82.30
2023-03-29T21:37:38.966Z,82.20
2023-03-29T21:40:08.626Z,80.50
2023-03-29T21:42:35.811Z,80.10
2023-03-29T21:45:03.280Z,79.40
2023-03-29T21:47:31.142Z,79.50
2023-03-29T21:49:58.283Z,78.20
2023-03-29T21:52:25.569Z,78.50
2023-03-29T21:54:52.740Z,80.80
2023-03-29T21:57:19.920Z,84.50
2023-03-29T21:59:47.075Z,83.60
2023-03-29T22:02:14.222Z,87.20
2023-03-29T22:04:41.511Z,88.50
2023-03-29T22:07:10.697Z,88.80
2023-03-29T22:09:37.966Z,87.70
2023-03-29T22:12:05.254Z,85.60
2023-03-29T22:14:35.334Z,86.90
2023-03-29T22:17:06.304Z,86.50
2023-03-29T22:19:39.704Z,86.00
2023-03-29T22:22:13.760Z,86.70
2023-03-29T22:24:42.098Z,88.10
2023-03-29T22:27:10.597Z,88.20
2023-03-29T22:29:37.785Z,89.10
2023-03-29T22:32:05.156Z,89.70
2023-03-29T22:34:32.566Z,90.40
2023-03-29T22:36:59.673Z,90.80
2023-03-29T22:39:26.956Z,90.90
2023-03-29T22:41:54.328Z,91.00
2023-03-29T22:44:21.438Z,90.90
2023-03-29T22:46:48.463Z,91.40
2023-03-29T22:49:15.570Z,92.60
2023-03-29T22:51:42.665Z,93.20
2023-03-29T22:54:09.850Z,93.70
2023-03-29T22:56:36.882Z,92.80
2023-03-29T22:59:04.159Z,91.90
2023-03-29T23:01:31.306Z,91.70
2023-03-29T23:03:58.521Z,91.20
2023-03-29T23:06:25.880Z,91.50
2023-03-29T23:08:52.957Z,90.60
2023-03-29T23:11:20.007Z,91.60
2023-03-29T23:13:49.054Z,92.60
2023-03-29T23:16:16.525Z,92.90
2023-03-29T23:18:43.943Z,91.60
2023-03-29T23:21:11.056Z,92.10
2023-03-29T23:23:38.428Z,92.50
2023-03-29T23:26:06.227Z,92.40
2023-03-29T23:28:34.588Z,91.70
2023-03-29T23:31:13.236Z,91.30
2023-03-29T23:33:42.859Z,91.00
2023-03-29T23:36:15.655Z,90.80
2023-03-29T23:38:45.317Z,90.50
2023-03-29T23:41:13.030Z,90.30
2023-03-29T23:43:42.811Z,90.40
2023-03-29T23:46:12.503Z,90.40
2023-03-29T23:48:39.674Z,89.60
2023-03-29T23:51:08.232Z,89.20
2023-03-29T23:53:35.482Z,90.00
2023-03-29T23:56:05.125Z,90.20
2023-03-29T23:58:35.020Z,89.80
